createdAt,value
2018-12-31T00:01:17.832Z,3.69
2018-12-31T00:03:46.520Z,3.70
2018-12-31T00:06:15.306Z,3.61
2018-12-31T00:08:44.093Z,3.58
2018-12-31T00:11:12.881Z,3.48
2018-12-31T00:13:41.671Z,3.56
2018-12-31T00:16:10.458Z,3.44
2018-12-31T00:18:39.657Z,3.41
2018-12-31T00:21:08.342Z,3.33
2018-12-31T00:23:37.334Z,3.27
2018-12-31T00:26:06.125Z,3.39
2018-12-31T00:28:34.915Z,3.61
2018-12-31T00:31:03.699Z,3.48
2018-12-31T00:33:32.594Z,3.67
2018-12-31T00:36:01.173Z,3.48
2018-12-31T00:38:29.960Z,3.39
2018-12-31T00:40:58.549Z,3.37
2018-12-31T00:43:27.449Z,3.36
2018-12-31T00:45:56.237Z,3.50
2018-12-31T00:48:24.923Z,3.39
2018-12-31T00:50:53.709Z,3.48
2018-12-31T00:53:22.394Z,3.40
2018-12-31T00:55:51.183Z,3.62
2018-12-31T00:58:19.872Z,3.50
2018-12-31T01:00:48.658Z,3.75
2018-12-31T01:03:17.343Z,3.67
2018-12-31T01:05:46.130Z,3.67
2018-12-31T01:08:15.533Z,3.61
2018-12-31T01:10:45.567Z,3.76
2018-12-31T01:13:14.238Z,3.57
2018-12-31T01:15:42.923Z,3.78
2018-12-31T01:18:11.709Z,3.63
2018-12-31T01:20:40.466Z,3.49
2018-12-31T01:23:09.287Z,3.53
2018-12-31T01:25:37.972Z,3.60
2018-12-31T01:28:06.761Z,3.53
2018-12-31T01:30:35.445Z,3.62
2018-12-31T01:33:04.234Z,3.50
2018-12-31T01:35:32.920Z,3.68
2018-12-31T01:38:03.346Z,3.50
2018-12-31T01:40:32.135Z,3.42
2018-12-31T01:43:00.924Z,3.52
2018-12-31T01:45:29.711Z,3.62
2018-12-31T01:47:58.498Z,3.66
2018-12-31T01:50:27.191Z,3.60
2018-12-31T01:52:55.973Z,3.67
2018-12-31T01:55:24.780Z,3.71
2018-12-31T01:57:53.549Z,3.65
2018-12-31T02:00:22.346Z,3.76
2018-12-31T02:02:51.124Z,3.80
2018-12-31T02:05:19.810Z,3.91
2018-12-31T02:07:48.599Z,4.16
2018-12-31T02:10:17.386Z,4.23
2018-12-31T02:12:46.176Z,4.21
2018-12-31T02:15:14.861Z,4.24
2018-12-31T02:17:43.651Z,4.21
2018-12-31T02:20:12.232Z,4.26
2018-12-31T02:22:41.025Z,4.34
2018-12-31T02:25:09.708Z,4.48
2018-12-31T02:27:38.495Z,4.52
2018-12-31T02:30:07.388Z,4.59
2018-12-31T02:32:36.174Z,4.53
2018-12-31T02:35:05.409Z,4.63
2018-12-31T02:37:34.058Z,4.70
2018-12-31T02:40:02.744Z,4.74
2018-12-31T02:42:31.633Z,4.77
2018-12-31T02:45:00.407Z,4.53
2018-12-31T02:47:29.210Z,4.63
2018-12-31T02:49:58.000Z,4.62
2018-12-31T02:52:26.788Z,4.56
2018-12-31T02:54:55.574Z,4.58
2018-12-31T02:57:24.363Z,4.49
2018-12-31T02:59:53.047Z,4.63
2018-12-31T03:02:21.837Z,4.61
2018-12-31T03:04:50.530Z,4.58
2018-12-31T03:07:19.515Z,4.56
2018-12-31T03:09:48.227Z,4.62
2018-12-31T03:12:17.092Z,4.45
2018-12-31T03:14:45.776Z,4.57
2018-12-31T03:17:14.563Z,4.63
2018-12-31T03:19:43.255Z,4.58
2018-12-31T03:22:12.040Z,4.76
2018-12-31T03:24:40.725Z,4.60
2018-12-31T03:27:09.513Z,4.61
2018-12-31T03:29:38.301Z,4.39
2018-12-31T03:32:06.989Z,4.71
2018-12-31T03:34:35.776Z,4.79
2018-12-31T03:37:04.562Z,4.66
2018-12-31T03:39:33.352Z,4.69
2018-12-31T03:42:02.042Z,4.75
2018-12-31T03:44:30.859Z,4.61
2018-12-31T03:46:59.514Z,4.57
2018-12-31T03:49:28.197Z,4.73
2018-12-31T03:51:56.882Z,4.58
2018-12-31T03:54:25.675Z,4.81
2018-12-31T03:56:54.459Z,4.78
2018-12-31T03:59:23.246Z,4.62
2018-12-31T04:01:51.931Z,4.69
2018-12-31T04:04:20.728Z,4.73
2018-12-31T04:06:49.610Z,4.83
2018-12-31T04:09:18.400Z,4.60
2018-12-31T04:11:47.085Z,4.73
2018-12-31T04:14:15.876Z,4.76
2018-12-31T04:16:46.099Z,4.46
2018-12-31T04:19:14.885Z,4.72
2018-12-31T04:21:43.569Z,4.82
2018-12-31T04:24:12.357Z,4.81
2018-12-31T04:26:41.145Z,4.75
2018-12-31T04:29:09.935Z,4.81
2018-12-31T04:31:38.619Z,4.72
2018-12-31T04:34:07.408Z,4.85
2018-12-31T04:36:36.092Z,4.90
2018-12-31T04:39:06.928Z,4.85
2018-12-31T04:41:35.718Z,4.58
2018-12-31T04:44:04.408Z,4.73
2018-12-31T04:46:33.195Z,4.76
2018-12-31T04:49:01.986Z,4.85
2018-12-31T04:51:30.767Z,4.76
2018-12-31T04:53:59.555Z,4.94
2018-12-31T04:56:28.344Z,4.99
2018-12-31T04:58:57.028Z,4.75
2018-12-31T05:01:25.820Z,4.74
2018-12-31T05:03:54.514Z,4.86
2018-12-31T05:06:23.196Z,4.98
2018-12-31T05:08:51.877Z,4.74
2018-12-31T05:11:20.663Z,4.59
2018-12-31T05:13:49.353Z,4.89
2018-12-31T05:16:18.137Z,4.95
2018-12-31T05:18:46.927Z,4.84
2018-12-31T05:21:15.714Z,4.79
2018-12-31T05:23:44.400Z,4.67
2018-12-31T05:26:13.191Z,4.79
2018-12-31T05:28:41.874Z,5.05
2018-12-31T05:31:10.667Z,4.88
2018-12-31T05:33:39.346Z,4.78
2018-12-31T05:36:08.137Z,4.88
2018-12-31T05:38:38.498Z,4.85
2018-12-31T05:41:07.247Z,4.87
2018-12-31T05:43:36.036Z,5.17
2018-12-31T05:46:04.823Z,4.98
2018-12-31T05:48:33.517Z,5.24
2018-12-31T05:51:02.400Z,5.01
2018-12-31T05:53:31.085Z,5.18
2018-12-31T05:55:59.770Z,5.20
2018-12-31T05:58:28.456Z,5.24
2018-12-31T06:00:57.249Z,5.13
2018-12-31T06:03:25.930Z,5.00
2018-12-31T06:05:54.718Z,5.03
2018-12-31T06:08:23.610Z,5.08
2018-12-31T06:10:52.396Z,5.18
2018-12-31T06:13:21.084Z,5.12
2018-12-31T06:15:49.872Z,5.18
2018-12-31T06:18:18.558Z,5.12
2018-12-31T06:20:47.349Z,5.06
2018-12-31T06:23:16.033Z,5.13
2018-12-31T06:25:44.716Z,4.87
2018-12-31T06:28:13.506Z,5.09
2018-12-31T06:30:42.308Z,5.02
2018-12-31T06:33:11.083Z,5.20
2018-12-31T06:35:39.770Z,4.98
2018-12-31T06:38:08.555Z,5.26
2018-12-31T06:40:37.349Z,5.41
2018-12-31T06:43:06.031Z,5.36
2018-12-31T06:45:34.717Z,5.37
2018-12-31T06:48:03.503Z,5.10
2018-12-31T06:50:32.188Z,5.22
2018-12-31T06:53:00.977Z,5.18
2018-12-31T06:55:29.766Z,5.27
2018-12-31T06:57:58.456Z,5.26
2018-12-31T07:00:27.239Z,5.22
2018-12-31T07:02:56.028Z,5.19
2018-12-31T07:05:24.832Z,5.20
2018-12-31T07:07:53.601Z,5.11
2018-12-31T07:10:22.393Z,5.32
2018-12-31T07:12:51.179Z,5.25
2018-12-31T07:15:19.863Z,5.26
2018-12-31T07:17:48.655Z,5.14
2018-12-31T07:20:17.445Z,5.32
2018-12-31T07:22:46.343Z,5.32
2018-12-31T07:25:15.051Z,5.43
2018-12-31T07:27:43.807Z,5.23
2018-12-31T07:30:12.603Z,5.15
2018-12-31T07:32:41.385Z,5.20
2018-12-31T07:35:11.549Z,5.24
2018-12-31T07:37:40.495Z,5.34
2018-12-31T07:40:09.184Z,5.21
2018-12-31T07:42:37.969Z,5.47
2018-12-31T07:45:06.861Z,5.38
2018-12-31T07:47:35.655Z,5.53
2018-12-31T07:50:04.980Z,5.48
2018-12-31T07:52:33.737Z,5.37
2018-12-31T07:55:02.430Z,5.42
2018-12-31T07:57:31.209Z,5.46
2018-12-31T07:59:59.999Z,5.38
2018-12-31T08:02:28.897Z,5.52
2018-12-31T08:04:57.574Z,5.51
2018-12-31T08:07:26.361Z,5.37
2018-12-31T08:09:55.150Z,5.37
2018-12-31T08:12:23.937Z,5.52
2018-12-31T08:14:52.728Z,5.46
2018-12-31T08:17:21.413Z,5.59
2018-12-31T08:19:50.098Z,5.56
2018-12-31T08:22:18.888Z,5.51
2018-12-31T08:24:47.572Z,5.39
2018-12-31T08:27:16.565Z,5.36
2018-12-31T08:29:45.355Z,5.45
2018-12-31T08:32:14.141Z,5.74
2018-12-31T08:34:42.934Z,5.81
2018-12-31T08:37:11.723Z,5.79
2018-12-31T08:39:40.505Z,5.61
2018-12-31T08:42:09.191Z,5.83
2018-12-31T08:44:40.862Z,5.90
2018-12-31T08:47:10.352Z,5.72
2018-12-31T08:49:39.244Z,5.71
2018-12-31T08:52:07.928Z,5.81
2018-12-31T08:54:36.716Z,5.67
2018-12-31T08:57:05.408Z,5.64
2018-12-31T08:59:34.192Z,5.76
2018-12-31T09:02:02.880Z,6.01
2018-12-31T09:04:31.767Z,5.93
2018-12-31T09:07:00.554Z,5.82
2018-12-31T09:09:29.345Z,5.88
2018-12-31T09:11:58.027Z,5.92
2018-12-31T09:14:26.833Z,5.92
2018-12-31T09:16:55.809Z,6.01
2018-12-31T09:19:24.497Z,5.92
2018-12-31T09:21:53.375Z,6.01
2018-12-31T09:24:22.174Z,6.17
2018-12-31T09:26:50.960Z,6.19
2018-12-31T09:29:19.953Z,6.10
2018-12-31T09:31:48.640Z,6.19
2018-12-31T09:34:17.428Z,6.12
2018-12-31T09:36:46.113Z,6.12
2018-12-31T09:39:14.904Z,6.44
2018-12-31T09:41:43.693Z,6.38
2018-12-31T09:44:12.479Z,6.34
2018-12-31T09:46:41.167Z,6.60
2018-12-31T09:49:09.953Z,6.54
2018-12-31T09:51:38.743Z,6.81
2018-12-31T09:54:07.527Z,6.87
2018-12-31T09:56:36.323Z,6.86
2018-12-31T09:59:05.107Z,6.91
2018-12-31T10:01:33.895Z,7.14
2018-12-31T10:04:02.681Z,7.35
2018-12-31T10:06:31.370Z,6.97
2018-12-31T10:09:00.156Z,7.08
2018-12-31T10:11:28.841Z,7.06
2018-12-31T10:13:57.633Z,6.91
2018-12-31T10:16:26.519Z,7.30
2018-12-31T10:18:55.307Z,7.42
2018-12-31T10:21:24.096Z,7.21
2018-12-31T10:23:52.883Z,7.54
2018-12-31T10:26:21.672Z,7.27
2018-12-31T10:28:50.460Z,7.33
2018-12-31T10:31:19.251Z,7.54
2018-12-31T10:33:48.037Z,7.84
2018-12-31T10:36:16.721Z,8.08
2018-12-31T10:38:51.085Z,7.60
2018-12-31T10:41:15.835Z,7.58
2018-12-31T10:43:44.826Z,7.72
2018-12-31T10:46:13.613Z,7.53
2018-12-31T10:48:44.347Z,7.57
2018-12-31T10:51:14.671Z,7.68
2018-12-31T10:53:43.360Z,7.74
2018-12-31T10:56:12.147Z,7.71
2018-12-31T10:58:40.832Z,7.31
2018-12-31T11:01:09.620Z,7.38
2018-12-31T11:03:38.307Z,7.30
2018-12-31T11:06:07.092Z,7.63
2018-12-31T11:08:35.778Z,7.60
2018-12-31T11:11:04.567Z,7.68
2018-12-31T11:13:33.356Z,8.05
2018-12-31T11:16:02.143Z,7.95
2018-12-31T11:18:30.829Z,7.82
2018-12-31T11:20:59.513Z,7.87
2018-12-31T11:23:28.508Z,8.13
2018-12-31T11:25:57.296Z,8.07
2018-12-31T11:28:25.974Z,8.14
2018-12-31T11:30:54.670Z,8.22
2018-12-31T11:33:23.354Z,8.52
2018-12-31T11:35:52.141Z,8.20
2018-12-31T11:38:20.945Z,8.01
2018-12-31T11:40:49.820Z,7.90
2018-12-31T11:43:18.509Z,8.26
2018-12-31T11:45:47.293Z,8.14
2018-12-31T11:48:15.978Z,8.21
2018-12-31T11:50:44.870Z,7.91
2018-12-31T11:53:13.555Z,8.07
2018-12-31T11:55:42.344Z,7.87
2018-12-31T11:58:10.928Z,7.95
2018-12-31T12:00:39.716Z,8.28
2018-12-31T12:03:11.892Z,8.41
2018-12-31T12:05:40.673Z,8.66
2018-12-31T12:08:09.585Z,8.90
2018-12-31T12:10:38.350Z,8.88
2018-12-31T12:13:07.138Z,8.83
2018-12-31T12:15:35.817Z,8.73
2018-12-31T12:18:04.437Z,8.41
2018-12-31T12:20:33.076Z,8.55
2018-12-31T12:23:01.713Z,8.48
2018-12-31T12:25:30.308Z,8.62
2018-12-31T12:27:58.909Z,8.57
2018-12-31T12:30:27.809Z,8.66
2018-12-31T12:32:56.426Z,8.67
2018-12-31T12:35:25.105Z,8.92
2018-12-31T12:37:53.895Z,8.71
2018-12-31T12:40:22.578Z,9.01
2018-12-31T12:42:51.469Z,9.13
2018-12-31T12:45:20.258Z,9.08
2018-12-31T12:47:49.046Z,8.85
2018-12-31T12:50:17.833Z,8.91
2018-12-31T12:52:46.627Z,8.76
2018-12-31T12:55:15.616Z,8.69
2018-12-31T12:57:44.419Z,8.39
2018-12-31T13:00:13.089Z,8.53
2018-12-31T13:02:41.773Z,8.50
2018-12-31T13:05:10.466Z,8.29
2018-12-31T13:07:49.692Z,8.38
2018-12-31T13:10:18.480Z,8.67
2018-12-31T13:12:47.167Z,8.79
2018-12-31T13:15:16.161Z,8.87
2018-12-31T13:17:45.158Z,9.10
2018-12-31T13:20:13.943Z,8.76
2018-12-31T13:22:42.733Z,8.66
2018-12-31T13:25:11.522Z,8.55
2018-12-31T13:27:40.202Z,8.49
2018-12-31T13:30:10.456Z,8.54
2018-12-31T13:32:39.416Z,8.45
2018-12-31T13:35:08.513Z,8.08
2018-12-31T13:37:37.198Z,8.33
2018-12-31T13:40:06.397Z,8.48
2018-12-31T13:42:35.594Z,8.09
2018-12-31T13:45:04.795Z,8.00
2018-12-31T13:47:33.476Z,8.15
2018-12-31T13:50:02.368Z,7.98
2018-12-31T13:52:31.155Z,8.20
2018-12-31T13:55:00.176Z,7.94
2018-12-31T13:57:28.937Z,8.06
2018-12-31T13:59:57.727Z,7.87
2018-12-31T14:02:26.514Z,7.93
2018-12-31T14:04:55.202Z,7.91
2018-12-31T14:07:24.397Z,7.95
2018-12-31T14:09:54.725Z,7.75
2018-12-31T14:12:23.525Z,7.85
2018-12-31T14:14:52.500Z,7.75
2018-12-31T14:17:21.292Z,7.86
2018-12-31T14:19:50.281Z,7.81
2018-12-31T14:22:19.070Z,7.86
2018-12-31T14:24:47.759Z,7.80
2018-12-31T14:27:16.545Z,7.84
2018-12-31T14:29:45.448Z,7.68
2018-12-31T14:32:14.433Z,7.64
2018-12-31T14:34:43.114Z,7.74
2018-12-31T14:37:11.904Z,7.65
2018-12-31T14:39:40.900Z,7.73
2018-12-31T14:42:09.688Z,7.67
2018-12-31T14:44:39.086Z,7.66
2018-12-31T14:47:07.904Z,7.61
2018-12-31T14:49:36.767Z,7.79
2018-12-31T14:52:05.872Z,7.50
2018-12-31T14:54:34.648Z,7.56
2018-12-31T14:57:03.541Z,7.46
2018-12-31T14:59:32.430Z,7.24
2018-12-31T15:02:01.230Z,7.38
2018-12-31T15:04:30.006Z,7.37
2018-12-31T15:06:58.798Z,7.19
2018-12-31T15:09:27.992Z,7.10
2018-12-31T15:11:56.782Z,7.16
2018-12-31T15:14:25.468Z,7.15
2018-12-31T15:16:54.257Z,7.04
2018-12-31T15:19:22.945Z,7.08
2018-12-31T15:21:52.241Z,7.06
2018-12-31T15:24:20.925Z,7.00
2018-12-31T15:26:49.715Z,7.00
2018-12-31T15:29:18.504Z,6.97
2018-12-31T15:31:47.289Z,6.94
2018-12-31T15:34:16.285Z,6.94
2018-12-31T15:36:45.072Z,6.90
2018-12-31T15:39:13.860Z,6.86
2018-12-31T15:41:42.649Z,6.78
2018-12-31T15:44:11.332Z,6.92
2018-12-31T15:46:40.121Z,6.92
2018-12-31T15:49:08.909Z,6.87
2018-12-31T15:51:37.704Z,6.92
2018-12-31T15:54:06.383Z,6.81
2018-12-31T15:56:35.173Z,7.02
2018-12-31T15:59:03.857Z,6.98
2018-12-31T16:01:34.162Z,7.00
2018-12-31T16:04:02.969Z,7.03
2018-12-31T16:06:31.758Z,7.10
2018-12-31T16:09:00.546Z,7.07
2018-12-31T16:11:29.334Z,7.06
2018-12-31T16:13:58.121Z,7.01
2018-12-31T16:16:26.912Z,7.06
2018-12-31T16:18:55.801Z,7.08
2018-12-31T16:21:24.598Z,7.07
2018-12-31T16:23:53.378Z,7.15
2018-12-31T16:26:22.166Z,7.13
2018-12-31T16:28:50.954Z,7.13
2018-12-31T16:31:19.639Z,7.04
2018-12-31T16:33:48.428Z,6.97
2018-12-31T16:36:17.113Z,6.96
2018-12-31T16:38:46.107Z,7.06
2018-12-31T16:41:14.896Z,7.02
2018-12-31T16:43:43.693Z,7.08
2018-12-31T16:46:13.275Z,7.10
2018-12-31T16:48:42.079Z,7.19
2018-12-31T16:51:10.866Z,6.98
2018-12-31T16:53:39.655Z,7.03
2018-12-31T16:56:08.443Z,6.94
2018-12-31T16:58:37.133Z,6.91
2018-12-31T17:01:05.713Z,6.97
2018-12-31T17:03:34.812Z,6.94
2018-12-31T17:06:03.597Z,6.88
2018-12-31T17:08:32.383Z,6.96
2018-12-31T17:11:01.068Z,6.98
2018-12-31T17:13:29.958Z,7.15
2018-12-31T17:16:01.408Z,7.12
2018-12-31T17:18:30.196Z,7.10
2018-12-31T17:20:58.985Z,7.03
2018-12-31T17:23:27.777Z,6.97
2018-12-31T17:25:56.565Z,6.96
2018-12-31T17:28:25.349Z,6.96
2018-12-31T17:30:54.240Z,6.92
2018-12-31T17:33:23.028Z,7.05
2018-12-31T17:35:51.819Z,7.00
2018-12-31T17:38:22.432Z,6.97
2018-12-31T17:40:50.928Z,6.93
2018-12-31T17:43:19.717Z,6.96
2018-12-31T17:45:48.405Z,7.16
2018-12-31T17:48:17.192Z,6.93
2018-12-31T17:50:45.882Z,6.95
2018-12-31T17:53:14.871Z,6.99
2018-12-31T17:55:43.555Z,7.16
2018-12-31T17:58:12.343Z,7.10
2018-12-31T18:00:41.029Z,7.10
2018-12-31T18:03:09.816Z,7.15
2018-12-31T18:05:38.605Z,7.08
2018-12-31T18:08:07.599Z,7.08
2018-12-31T18:10:36.386Z,7.00
2018-12-31T18:13:05.173Z,7.02
2018-12-31T18:15:33.860Z,7.07
2018-12-31T18:18:02.657Z,7.05
2018-12-31T18:20:31.641Z,6.99
2018-12-31T18:23:00.429Z,7.03
2018-12-31T18:25:29.216Z,6.96
2018-12-31T18:27:58.007Z,7.05
2018-12-31T18:30:26.793Z,7.22
2018-12-31T18:32:55.685Z,7.32
2018-12-31T18:35:24.473Z,7.23
2018-12-31T18:37:53.262Z,7.22
2018-12-31T18:40:22.445Z,7.28
2018-12-31T18:42:51.350Z,7.25
2018-12-31T18:45:20.342Z,7.24
2018-12-31T18:47:49.131Z,7.33
2018-12-31T18:50:38.195Z,7.43
2018-12-31T18:53:06.881Z,7.33
2018-12-31T18:55:35.874Z,7.46
2018-12-31T18:58:04.560Z,7.28
2018-12-31T19:00:33.401Z,7.35
2018-12-31T19:03:02.441Z,7.34
2018-12-31T19:05:31.229Z,7.28
2018-12-31T19:08:00.428Z,7.30
2018-12-31T19:10:29.215Z,7.32
2018-12-31T19:12:57.903Z,7.38
